createdAt,value
2019-03-11T12:21:32.219Z,23.2
2019-03-11T12:31:35.547Z,22.1
2019-03-11T12:41:38.879Z,22.2
2019-03-11T12:51:49.469Z,22.2
2019-03-11T13:01:53.821Z,22.1
2019-03-11T13:11:57.183Z,22.1
2019-03-11T13:22:00.491Z,22.1
2019-03-11T13:32:03.815Z,22.2
2019-03-11T13:42:07.163Z,22.2
2019-03-11T13:52:10.526Z,22.2
2019-03-11T14:02:13.883Z,21.9
2019-03-11T14:12:17.199Z,22
2019-03-11T14:22:20.522Z,22
2019-03-11T14:32:23.848Z,22.1
2019-03-11T14:42:27.193Z,22.1
2019-03-11T14:52:30.512Z,22.1
2019-03-11T15:02:33.923Z,22.1
2019-03-11T15:12:37.287Z,22.2
2019-03-11T15:22:40.615Z,22.1
2019-03-11T15:32:43.951Z,22.1
2019-03-11T15:42:47.267Z,22.1
2019-03-11T15:52:50.605Z,22
2019-03-11T16:02:53.911Z,22
2019-03-11T16:12:57.267Z,21.9
2019-03-11T16:23:00.618Z,22
2019-03-11T16:33:03.931Z,22
2019-03-11T16:43:07.283Z,21.9
2019-03-11T16:53:10.643Z,21.9
2019-03-11T17:03:13.987Z,21.9
2019-03-11T17:13:17.338Z,21.9
2019-03-11T17:23:20.679Z,21.9
2019-03-11T17:33:24.000Z,21.8
2019-03-11T17:43:27.335Z,21.8
2019-03-11T17:53:30.699Z,21.8
2019-03-11T18:03:34.009Z,21.8
2019-03-11T18:13:37.340Z,21.8
2019-03-11T18:23:40.662Z,21.8
2019-03-11T18:33:44.011Z,21.8
2019-03-11T18:43:47.425Z,21.8
2019-03-11T18:53:50.784Z,21.8
2019-03-11T19:03:54.160Z,21.8
2019-03-11T19:13:57.526Z,21.8
2019-03-11T19:24:00.994Z,21.7
2019-03-11T19:34:04.353Z,21.7
2019-03-11T19:44:07.792Z,21.7
2019-03-11T19:54:11.159Z,21.7
2019-03-11T20:04:14.605Z,21.7
2019-03-11T20:14:18.108Z,21.7
2019-03-11T20:24:21.592Z,21.7
2019-03-11T20:34:25.010Z,21.7
2019-03-11T20:44:28.408Z,21.7
2019-03-11T20:54:31.815Z,21.7
2019-03-11T21:04:35.341Z,21.7
2019-03-11T21:14:38.811Z,21.7
2019-03-11T21:24:42.251Z,21.8
2019-03-11T21:34:45.777Z,21.8
2019-03-11T21:44:49.429Z,21.7
2019-03-11T21:54:52.899Z,21.7
2019-03-11T22:04:56.348Z,21.7
2019-03-11T22:14:59.709Z,21.7
2019-03-11T22:25:03.027Z,21.6
2019-03-11T22:35:12.326Z,21.6
2019-03-11T22:45:17.053Z,21.6
2019-03-11T22:55:20.441Z,21.5
2019-03-11T23:05:23.790Z,21.5
2019-03-11T23:15:27.164Z,21.5
2019-03-11T23:25:30.501Z,21.5
2019-03-11T23:35:33.835Z,21.5
2019-03-11T23:45:37.178Z,21.5
2019-03-11T23:55:40.498Z,21.5
